createdAt,value
2023-05-07T00:00:25.149Z,100836.34
2023-05-07T00:02:54.617Z,100842.63
2023-05-07T00:05:29.226Z,100843.41
2023-05-07T00:07:59.716Z,100842.22
2023-05-07T00:10:29.635Z,100836.19
2023-05-07T00:12:59.291Z,100848.19
2023-05-07T00:15:30.661Z,100832.66
2023-05-07T00:18:00.515Z,100847.31
2023-05-07T00:20:30.094Z,100840.28
2023-05-07T00:22:59.499Z,100840.09
2023-05-07T00:25:28.885Z,100847.50
2023-05-07T00:27:58.247Z,100849.19
2023-05-07T00:30:29.750Z,100850.94
2023-05-07T00:32:59.246Z,100859.50
2023-05-07T00:35:29.444Z,100849.81
2023-05-07T00:37:59.253Z,100845.56
2023-05-07T00:40:28.860Z,100859.53
2023-05-07T00:43:09.379Z,100865.88
2023-05-07T00:45:40.823Z,100867.50
2023-05-07T00:48:10.361Z,100866.53
2023-05-07T00:50:39.724Z,100867.19
2023-05-07T00:53:14.470Z,100863.13
2023-05-07T00:55:49.008Z,100864.88
2023-05-07T00:58:23.571Z,100863.75
2023-05-07T01:00:55.046Z,100864.56
2023-05-07T01:03:24.701Z,100865.13
2023-05-07T01:06:01.402Z,100869.06
2023-05-07T01:08:32.327Z,100863.19
2023-05-07T01:11:04.274Z,100867.16
2023-05-07T01:13:40.390Z,100871.53
2023-05-07T01:16:12.516Z,100871.28
2023-05-07T01:18:43.229Z,100872.09
2023-05-07T01:21:19.557Z,100816.75
2023-05-07T01:23:51.939Z,100881.69
2023-05-07T01:26:22.960Z,100865.13
2023-05-07T01:28:52.425Z,100873.13
2023-05-07T01:31:22.132Z,100871.06
2023-05-07T01:33:53.959Z,100885.44
2023-05-07T01:36:26.886Z,100849.22
2023-05-07T01:39:10.048Z,100881.63
2023-05-07T01:41:40.061Z,100872.88
2023-05-07T01:44:10.379Z,100880.03
2023-05-07T01:46:39.891Z,100889.22
2023-05-07T01:49:09.591Z,100889.38
2023-05-07T01:51:39.741Z,100901.63
2023-05-07T01:54:10.960Z,100881.44
2023-05-07T01:56:45.749Z,100900.34
2023-05-07T01:59:16.039Z,100902.03
2023-05-07T02:01:50.497Z,100907.34
2023-05-07T02:04:19.953Z,100898.03
2023-05-07T02:06:49.296Z,100879.22
2023-05-07T02:09:26.910Z,100907.34
2023-05-07T02:11:56.270Z,100897.88
2023-05-07T02:14:26.737Z,100907.81
2023-05-07T02:17:03.207Z,100899.09
2023-05-07T02:19:32.775Z,100905.56
2023-05-07T02:22:02.207Z,100895.63
2023-05-07T02:24:35.483Z,100899.56
2023-05-07T02:27:05.047Z,100920.41
2023-05-07T02:29:35.982Z,100911.72
2023-05-07T02:32:06.155Z,100918.78
2023-05-07T02:34:35.975Z,100862.34
2023-05-07T02:37:05.448Z,100926.16
2023-05-07T02:39:37.797Z,100920.28
2023-05-07T02:44:57.286Z,100931.66
2023-05-07T02:47:27.641Z,100946.66
2023-05-07T02:49:57.512Z,100941.50
2023-05-07T02:52:26.986Z,100920.56
2023-05-07T02:55:03.603Z,100944.44
2023-05-07T02:57:34.540Z,100886.09
2023-05-07T03:00:13.867Z,100950.13
2023-05-07T03:02:47.595Z,100943.19
2023-05-07T03:05:17.681Z,100939.22
2023-05-07T03:07:48.147Z,100950.63
2023-05-07T03:10:24.683Z,100955.94
2023-05-07T03:12:54.087Z,100951.94
2023-05-07T03:15:23.604Z,100957.38
2023-05-07T03:17:53.180Z,100950.84
2023-05-07T03:20:29.269Z,100957.06
2023-05-07T03:22:58.887Z,100964.94
2023-05-07T03:25:35.982Z,100957.66
2023-05-07T03:28:06.263Z,100973.28
2023-05-07T03:30:51.366Z,100972.09
2023-05-07T03:33:26.041Z,100962.97
2023-05-07T03:35:55.877Z,100965.53
2023-05-07T03:38:32.451Z,100949.31
2023-05-07T03:41:03.855Z,100972.69
2023-05-07T03:43:44.178Z,100980.31
2023-05-07T03:46:20.067Z,100955.34
2023-05-07T03:48:50.113Z,100966.31
2023-05-07T03:54:05.366Z,100965.50
2023-05-07T03:56:38.060Z,100978.78
2023-05-07T03:59:08.003Z,100971.53
2023-05-07T04:01:37.678Z,100984.84
2023-05-07T04:04:07.251Z,100995.06
2023-05-07T04:06:38.639Z,100994.00
2023-05-07T04:09:08.077Z,100998.69
2023-05-07T04:11:42.721Z,101002.97
2023-05-07T04:14:17.862Z,100998.72
2023-05-07T04:16:47.190Z,101002.59
2023-05-07T04:19:17.919Z,101001.28
2023-05-07T04:22:00.714Z,101001.84
2023-05-07T04:24:35.727Z,100989.63
2023-05-07T04:27:08.613Z,101004.50
2023-05-07T04:29:37.995Z,100998.06
2023-05-07T04:32:18.556Z,101009.06
2023-05-07T04:34:48.793Z,101009.06
2023-05-07T04:37:18.213Z,100973.69
2023-05-07T04:42:41.067Z,101006.47
2023-05-07T04:45:13.128Z,101013.34
2023-05-07T04:47:44.816Z,101021.25
2023-05-07T04:50:14.633Z,101001.78
2023-05-07T04:52:45.907Z,100981.22
2023-05-07T04:55:21.475Z,100996.78
2023-05-07T04:57:52.815Z,101018.03
2023-05-07T05:00:23.648Z,101016.16
2023-05-07T05:02:56.107Z,101015.22
2023-05-07T05:05:31.469Z,101016.28
2023-05-07T05:08:06.465Z,101014.88
2023-05-07T05:10:38.352Z,101011.56
2023-05-07T05:13:13.305Z,101026.97
2023-05-07T05:15:43.743Z,101021.03
2023-05-07T05:18:13.762Z,101024.28
2023-05-07T05:20:43.398Z,100993.06
2023-05-07T05:23:13.709Z,101003.66
2023-05-07T05:25:43.177Z,100997.97
2023-05-07T05:28:17.201Z,101009.59
2023-05-07T05:30:46.649Z,101013.69
2023-05-07T05:33:16.330Z,101038.25
2023-05-07T05:35:45.903Z,101025.84
2023-05-07T05:38:16.411Z,100960.47
2023-05-07T05:40:45.806Z,101005.34
2023-05-07T05:43:17.560Z,101037.94
2023-05-07T05:45:52.020Z,101041.63
2023-05-07T05:48:21.382Z,101028.91
2023-05-07T05:50:51.621Z,100996.72
2023-05-07T05:53:21.894Z,101029.47
2023-05-07T05:55:52.260Z,101028.03
2023-05-07T05:58:23.894Z,101038.78
2023-05-07T06:00:59.368Z,101045.09
2023-05-07T06:03:35.239Z,101040.19
2023-05-07T06:06:08.913Z,101030.91
2023-05-07T06:08:38.433Z,101051.41
2023-05-07T06:11:08.169Z,101011.22
2023-05-07T06:13:42.523Z,101052.94
2023-05-07T06:16:11.902Z,101058.94
2023-05-07T06:18:41.230Z,101049.72
2023-05-07T06:21:10.702Z,101055.75
2023-05-07T06:23:41.500Z,101052.91
2023-05-07T06:26:16.764Z,101025.59
2023-05-07T06:28:52.209Z,101037.97
2023-05-07T06:31:23.985Z,101054.19
2023-05-07T06:33:58.182Z,101045.28
2023-05-07T06:36:33.391Z,101026.00
2023-05-07T06:39:07.087Z,101020.69
2023-05-07T06:41:41.476Z,101048.44
2023-05-07T06:44:26.702Z,101047.09
2023-05-07T06:47:09.315Z,101046.66
2023-05-07T06:49:41.613Z,101045.03
2023-05-07T06:52:11.579Z,101018.19
2023-05-07T06:54:41.257Z,101030.16
2023-05-07T06:59:48.894Z,101053.78
2023-05-07T07:02:18.614Z,101041.69
2023-05-07T07:04:49.892Z,101033.75
2023-05-07T07:07:19.512Z,101036.25
2023-05-07T07:09:56.170Z,101056.84
2023-05-07T07:12:26.750Z,101031.38
2023-05-07T07:14:58.089Z,101056.81
2023-05-07T07:17:27.831Z,101041.19
2023-05-07T07:19:58.204Z,101053.25
2023-05-07T07:22:27.670Z,101042.34
2023-05-07T07:24:57.094Z,101040.69
2023-05-07T07:27:27.416Z,101037.97
2023-05-07T07:29:59.734Z,101045.31
2023-05-07T07:32:30.478Z,101034.78
2023-05-07T07:35:00.236Z,101039.59
2023-05-07T07:37:31.810Z,101015.44
2023-05-07T07:40:01.605Z,101039.22
2023-05-07T07:42:33.441Z,101050.63
2023-05-07T07:45:06.772Z,101013.16
2023-05-07T07:47:39.280Z,101016.19
2023-05-07T07:50:10.312Z,100991.47
2023-05-07T07:52:40.088Z,101036.25
2023-05-07T07:55:12.771Z,101022.25
2023-05-07T07:57:48.105Z,101039.38
2023-05-07T08:00:20.475Z,101024.94
2023-05-07T08:03:06.353Z,101020.50
2023-05-07T08:05:40.194Z,101020.31
2023-05-07T08:08:11.000Z,101028.88
2023-05-07T08:10:42.135Z,101033.53
2023-05-07T08:13:19.776Z,101036.53
2023-05-07T08:15:51.967Z,101018.16
2023-05-07T08:18:29.092Z,101023.47
2023-05-07T08:21:00.001Z,101033.22
2023-05-07T08:23:30.007Z,101001.78
2023-05-07T08:25:59.995Z,101024.03
2023-05-07T08:28:29.275Z,101017.44
2023-05-07T08:31:01.817Z,101023.19
2023-05-07T08:33:34.992Z,101015.41
2023-05-07T08:38:46.268Z,101010.78
2023-05-07T08:41:15.908Z,101024.75
2023-05-07T08:43:51.691Z,101022.47
2023-05-07T08:46:25.026Z,101008.88
2023-05-07T08:48:57.870Z,101001.88
2023-05-07T08:51:27.804Z,101030.94
2023-05-07T08:53:57.395Z,101025.22
2023-05-07T08:56:32.350Z,101027.31
2023-05-07T08:59:07.277Z,101021.69
2023-05-07T09:04:19.947Z,101019.84
2023-05-07T09:06:53.698Z,101020.66
2023-05-07T09:09:24.907Z,100988.00
2023-05-07T09:12:01.600Z,101013.78
2023-05-07T09:14:34.348Z,101013.75
2023-05-07T09:17:13.341Z,100992.75
2023-05-07T09:19:42.824Z,101010.00
2023-05-07T09:22:12.169Z,101011.38
2023-05-07T09:24:58.315Z,101027.13
2023-05-07T09:27:30.661Z,101008.03
2023-05-07T09:30:01.707Z,100947.28
2023-05-07T09:32:39.409Z,101036.00
2023-05-07T09:35:19.009Z,101017.41
2023-05-07T09:37:55.594Z,100990.00
2023-05-07T09:40:27.982Z,101001.78
2023-05-07T09:43:11.454Z,100996.91
2023-05-07T09:45:44.961Z,100974.38
2023-05-07T09:48:24.183Z,100982.03
2023-05-07T09:51:00.705Z,101002.69
2023-05-07T09:53:34.482Z,101009.50
2023-05-07T09:56:16.666Z,100999.00
2023-05-07T09:58:47.748Z,101008.09
2023-05-07T10:01:22.744Z,101012.38
2023-05-07T10:03:55.910Z,101000.50
2023-05-07T10:06:27.265Z,101016.41
2023-05-07T10:08:57.861Z,100998.13
2023-05-07T10:11:27.895Z,100994.25
2023-05-07T10:13:57.879Z,100960.09
2023-05-07T10:16:28.571Z,100991.00
2023-05-07T10:19:01.344Z,101006.13
2023-05-07T10:21:38.778Z,101011.53
2023-05-07T10:24:15.230Z,100973.19
2023-05-07T10:29:39.978Z,100998.19
2023-05-07T10:32:42.697Z,100967.22
2023-05-07T10:35:29.768Z,101000.97
2023-05-07T10:38:00.916Z,100992.53
2023-05-07T10:40:34.076Z,101002.00
2023-05-07T10:46:14.606Z,100974.78
2023-05-07T10:49:20.007Z,100966.31
2023-05-07T10:52:16.620Z,100998.66
2023-05-07T10:55:27.663Z,101000.78
2023-05-07T10:58:31.923Z,100976.44
2023-05-07T11:01:53.484Z,101002.22
2023-05-07T11:04:35.474Z,101000.13
2023-05-07T11:07:33.218Z,100989.09
2023-05-07T11:10:09.361Z,101000.81
2023-05-07T11:12:56.761Z,100983.31
2023-05-07T11:15:47.170Z,101008.56
2023-05-07T11:18:50.626Z,100982.50
2023-05-07T11:21:38.732Z,100978.06
2023-05-07T11:24:29.305Z,100990.56
2023-05-07T11:27:03.775Z,101007.94
2023-05-07T11:29:36.561Z,100982.59
2023-05-07T11:32:17.998Z,101005.34
2023-05-07T11:34:55.502Z,101002.19
2023-05-07T11:37:27.503Z,101006.63
2023-05-07T11:40:11.279Z,101009.03
2023-05-07T11:42:43.510Z,100998.50
2023-05-07T11:45:26.999Z,101004.25
2023-05-07T11:47:56.447Z,100999.31
2023-05-07T11:50:25.909Z,101006.53
2023-05-07T11:52:55.255Z,101000.22
2023-05-07T11:55:26.760Z,101012.97
2023-05-07T11:57:56.085Z,101013.53
2023-05-07T12:00:27.435Z,100994.66
2023-05-07T12:02:57.196Z,101008.94
2023-05-07T12:05:28.236Z,100991.97
2023-05-07T12:07:59.706Z,100992.06
2023-05-07T12:10:29.101Z,100963.00
2023-05-07T12:12:58.364Z,100993.59
2023-05-07T12:15:31.048Z,100985.38
2023-05-07T12:18:00.566Z,100989.22
2023-05-07T12:20:30.457Z,100981.50
2023-05-07T12:23:00.136Z,100987.69
2023-05-07T12:25:34.694Z,100928.28
2023-05-07T12:28:05.619Z,100986.38
2023-05-07T12:30:41.337Z,100991.66
2023-05-07T12:33:11.190Z,100978.00
2023-05-07T12:35:42.196Z,100964.88
2023-05-07T12:38:17.406Z,100967.72
2023-05-07T12:40:47.941Z,101002.16
2023-05-07T12:43:21.137Z,100952.25
2023-05-07T12:51:42.781Z,100957.13
2023-05-07T12:54:12.215Z,100983.63
2023-05-07T12:56:43.212Z,100986.84
2023-05-07T12:59:18.416Z,100971.34
2023-05-07T13:01:48.377Z,100981.47
2023-05-07T13:04:17.677Z,100960.66
2023-05-07T13:06:49.201Z,100980.88
2023-05-07T13:09:35.958Z,100987.00
2023-05-07T13:12:10.638Z,100967.44
2023-05-07T13:14:40.005Z,100970.72
2023-05-07T13:17:10.536Z,100975.84
2023-05-07T13:19:40.279Z,100974.97
2023-05-07T13:22:12.273Z,100975.75
2023-05-07T13:24:42.604Z,100961.50
2023-05-07T13:27:17.066Z,100999.94
2023-05-07T13:29:51.425Z,100994.78
2023-05-07T13:32:20.696Z,100974.78
2023-05-07T13:34:49.952Z,100989.69
2023-05-07T13:37:21.330Z,100947.31
2023-05-07T13:39:50.812Z,100990.38
2023-05-07T13:42:20.989Z,100999.03
2023-05-07T13:44:50.542Z,100978.47
2023-05-07T13:47:21.953Z,100964.72
2023-05-07T13:49:52.351Z,100997.47
2023-05-07T13:52:23.553Z,100988.94
2023-05-07T13:54:53.558Z,100979.69
2023-05-07T13:57:23.235Z,100999.31
2023-05-07T13:59:58.953Z,100968.03
2023-05-07T14:02:28.716Z,101001.47
2023-05-07T14:04:58.035Z,101006.50
2023-05-07T14:07:29.416Z,100969.16
2023-05-07T14:09:59.519Z,101000.38
2023-05-07T14:12:29.116Z,100985.06
2023-05-07T14:14:58.649Z,100987.25
2023-05-07T14:17:27.878Z,100995.78
2023-05-07T14:19:57.436Z,101000.22
2023-05-07T14:22:28.758Z,100996.94
2023-05-07T14:25:07.111Z,100997.00
2023-05-07T14:27:51.125Z,100995.41
2023-05-07T14:30:20.412Z,100991.09
2023-05-07T14:32:49.955Z,100983.16
2023-05-07T14:35:20.116Z,100957.81
2023-05-07T14:37:51.535Z,100995.19
2023-05-07T14:40:21.157Z,100992.91
2023-05-07T14:42:50.963Z,100966.25
2023-05-07T14:45:20.363Z,100995.06
2023-05-07T14:47:49.604Z,100989.25
2023-05-07T14:50:18.960Z,100976.31
2023-05-07T14:52:48.240Z,100988.44
2023-05-07T14:55:24.903Z,100995.09
2023-05-07T14:57:54.430Z,100993.91
2023-05-07T15:00:23.938Z,100989.34
2023-05-07T15:02:53.515Z,100963.00
2023-05-07T15:05:22.840Z,100983.75
2023-05-07T15:07:52.186Z,100999.19
2023-05-07T15:10:28.640Z,100997.34
2023-05-07T15:12:58.046Z,100992.94
2023-05-07T15:15:27.367Z,100975.91
2023-05-07T15:17:58.175Z,100999.16
2023-05-07T15:20:27.516Z,100970.69
2023-05-07T15:23:01.950Z,101005.31
2023-05-07T15:25:34.411Z,100994.97
2023-05-07T15:28:04.202Z,100982.16
2023-05-07T15:30:33.980Z,100945.88
2023-05-07T15:33:05.400Z,100969.81
2023-05-07T15:35:36.012Z,100976.63
2023-05-07T15:38:11.656Z,100994.34
2023-05-07T15:40:44.154Z,101000.22
2023-05-07T15:43:14.817Z,101004.28
2023-05-07T15:45:51.009Z,100995.56
2023-05-07T15:48:21.229Z,100995.31
2023-05-07T15:50:50.742Z,101006.44
2023-05-07T15:53:26.949Z,101006.44
2023-05-07T15:55:58.381Z,101015.00
2023-05-07T15:58:28.985Z,100995.94
2023-05-07T16:00:58.415Z,101001.03
2023-05-07T16:03:29.570Z,100985.41
2023-05-07T16:06:02.570Z,100995.00
2023-05-07T16:08:33.366Z,101008.09
2023-05-07T16:11:04.815Z,101015.88
2023-05-07T16:13:40.985Z,101011.47
2023-05-07T16:16:15.362Z,100991.34
2023-05-07T16:18:45.035Z,101024.16
2023-05-07T16:21:14.297Z,101012.91
2023-05-07T16:23:44.050Z,101024.13
2023-05-07T16:26:15.681Z,101029.38
2023-05-07T16:28:49.871Z,101022.53
2023-05-07T16:31:19.523Z,100953.06
2023-05-07T16:33:48.862Z,101016.97
2023-05-07T16:36:18.825Z,101023.25
2023-05-07T16:38:49.536Z,101024.25
2023-05-07T16:41:21.658Z,101023.06
2023-05-07T16:43:57.510Z,101026.88
2023-05-07T16:46:26.825Z,101027.69
2023-05-07T16:48:56.655Z,101043.94
2023-05-07T16:51:33.258Z,101034.88
2023-05-07T16:54:02.836Z,101043.81
2023-05-07T16:56:34.386Z,101037.94
2023-05-07T16:59:03.808Z,101042.00
2023-05-07T17:01:33.790Z,101043.03
2023-05-07T17:04:03.245Z,101043.69
2023-05-07T17:06:32.801Z,101044.47
2023-05-07T17:09:02.091Z,101035.53
2023-05-07T17:11:34.864Z,101047.78
2023-05-07T17:14:05.657Z,101051.75
2023-05-07T17:16:35.574Z,101058.78
2023-05-07T17:19:05.192Z,101042.66
2023-05-07T17:21:39.571Z,101058.22
2023-05-07T17:24:10.089Z,101067.25
2023-05-07T17:26:42.678Z,101068.28
2023-05-07T17:29:12.106Z,101060.78
2023-05-07T17:31:41.689Z,101062.03
2023-05-07T17:34:11.178Z,101061.22
2023-05-07T17:36:40.345Z,101067.13
2023-05-07T17:39:14.575Z,101067.19
2023-05-07T17:41:45.914Z,101067.19
2023-05-07T17:44:15.454Z,101071.91
2023-05-07T17:46:44.689Z,101078.56
2023-05-07T17:49:14.110Z,101076.25
2023-05-07T17:51:54.106Z,101076.75
2023-05-07T17:54:30.052Z,101071.66
2023-05-07T17:57:01.352Z,101074.09
2023-05-07T17:59:30.823Z,101081.53
2023-05-07T18:04:40.185Z,101072.66
2023-05-07T18:07:09.433Z,101078.38
2023-05-07T18:09:38.795Z,101070.09
2023-05-07T18:12:10.586Z,101076.94
2023-05-07T18:14:39.648Z,101082.19
2023-05-07T18:17:08.849Z,101087.09
2023-05-07T18:19:38.228Z,101082.00
2023-05-07T18:22:07.849Z,101083.78
2023-05-07T18:24:47.258Z,101093.06
2023-05-07T18:27:18.618Z,101092.03
2023-05-07T18:29:48.058Z,101096.31
2023-05-07T18:32:22.519Z,101093.06
2023-05-07T18:34:54.020Z,101089.69
2023-05-07T18:37:28.800Z,101094.41
2023-05-07T18:39:57.993Z,101093.38
2023-05-07T18:42:30.054Z,101109.41
2023-05-07T18:45:00.151Z,101105.28
2023-05-07T18:47:29.667Z,101107.34
2023-05-07T18:50:00.048Z,101073.66
2023-05-07T18:52:35.414Z,101112.16
2023-05-07T18:55:05.265Z,101113.28
2023-05-07T18:57:36.896Z,101107.34
2023-05-07T19:00:08.995Z,101116.25
2023-05-07T19:02:38.399Z,101124.44
2023-05-07T19:05:24.431Z,101118.09
2023-05-07T19:07:53.970Z,101123.75
2023-05-07T19:10:24.008Z,101118.66
2023-05-07T19:13:00.677Z,101114.53
2023-05-07T19:15:30.168Z,101119.41
2023-05-07T19:17:59.597Z,101125.75
2023-05-07T19:20:34.174Z,101085.75
2023-05-07T19:23:03.587Z,101122.56
2023-05-07T19:25:38.586Z,101097.91
2023-05-07T19:28:10.042Z,101121.50
2023-05-07T19:30:46.678Z,101108.31
2023-05-07T19:33:16.395Z,101114.53
2023-05-07T19:35:50.895Z,101124.06
2023-05-07T19:38:22.158Z,101130.81
2023-05-07T19:40:51.449Z,101136.25
2023-05-07T19:43:23.545Z,101130.06
2023-05-07T19:45:55.074Z,101103.00
2023-05-07T19:48:24.617Z,101135.03
2023-05-07T19:50:53.901Z,101147.31
2023-05-07T19:53:23.347Z,101147.22
2023-05-07T19:55:54.811Z,101149.66
2023-05-07T19:58:32.744Z,101120.56
2023-05-07T20:01:02.814Z,101149.34
2023-05-07T20:03:33.695Z,101137.78
2023-05-07T20:06:03.871Z,101144.53
2023-05-07T20:08:33.160Z,101158.59
2023-05-07T20:11:07.721Z,101155.03
2023-05-07T20:13:44.155Z,101167.88
2023-05-07T20:16:13.708Z,101157.19
2023-05-07T20:18:42.999Z,101165.69
2023-05-07T20:21:20.380Z,101167.47
2023-05-07T20:23:49.875Z,101166.72
2023-05-07T20:29:01.081Z,101165.44
2023-05-07T20:31:32.259Z,101171.22
2023-05-07T20:34:01.733Z,101167.97
2023-05-07T20:36:31.069Z,101171.53
2023-05-07T20:39:00.355Z,101169.72
2023-05-07T20:41:29.685Z,101176.06
2023-05-07T20:44:13.029Z,101186.34
2023-05-07T20:46:42.387Z,101188.75
2023-05-07T20:49:11.766Z,101195.44
2023-05-07T20:51:46.607Z,101188.38
2023-05-07T20:54:15.939Z,101192.50
2023-05-07T20:56:45.340Z,101189.97
2023-05-07T20:59:16.614Z,101201.09
2023-05-07T21:01:45.997Z,101204.59
2023-05-07T21:04:26.853Z,101203.53
2023-05-07T21:06:56.083Z,101193.75
2023-05-07T21:09:25.882Z,101202.34
2023-05-07T21:11:55.304Z,101208.22
2023-05-07T21:14:31.768Z,101170.91
2023-05-07T21:17:01.507Z,101202.88
2023-05-07T21:19:30.930Z,101207.72
2023-05-07T21:22:00.715Z,101203.06
2023-05-07T21:24:35.273Z,101188.16
2023-05-07T21:27:04.842Z,101218.41
2023-05-07T21:29:36.362Z,101210.38
2023-05-07T21:32:06.226Z,101211.75
2023-05-07T21:34:35.669Z,101227.09
2023-05-07T21:37:10.179Z,101207.31
2023-05-07T21:39:39.551Z,101209.53
2023-05-07T21:42:09.128Z,101225.50
2023-05-07T21:44:40.616Z,101228.75
2023-05-07T21:47:15.189Z,101222.97
2023-05-07T21:49:44.550Z,101230.19
2023-05-07T21:52:14.369Z,101213.63
2023-05-07T21:54:44.379Z,101231.09
2023-05-07T21:57:13.665Z,101217.03
2023-05-07T21:59:45.015Z,101223.59
2023-05-07T22:02:24.507Z,101235.41
2023-05-07T22:04:53.934Z,101223.84
2023-05-07T22:07:23.243Z,101172.81
2023-05-07T22:09:52.649Z,101229.22
2023-05-07T22:12:21.998Z,101235.28
2023-05-07T22:14:53.406Z,101231.06
2023-05-07T22:17:24.141Z,101224.97
2023-05-07T22:19:53.796Z,101225.47
2023-05-07T22:22:23.058Z,101226.22
2023-05-07T22:24:52.649Z,101219.94
2023-05-07T22:27:21.771Z,101232.41
2023-05-07T22:32:28.015Z,101230.78
2023-05-07T22:34:57.340Z,101239.75
2023-05-07T22:37:26.821Z,101238.31
2023-05-07T22:39:56.178Z,101237.50
2023-05-07T22:42:25.721Z,101230.88
2023-05-07T22:44:58.154Z,101196.44
2023-05-07T22:47:27.615Z,101236.94
2023-05-07T22:49:56.825Z,101237.16
2023-05-07T22:52:34.176Z,101241.84
2023-05-07T22:55:03.593Z,101240.88
2023-05-07T22:57:38.038Z,101210.50
2023-05-07T23:00:15.744Z,101236.81
2023-05-07T23:02:45.756Z,101230.72
2023-05-07T23:05:15.234Z,101226.34
2023-05-07T23:07:44.465Z,101227.97
2023-05-07T23:12:50.395Z,101235.66
2023-05-07T23:15:22.367Z,101239.00
2023-05-07T23:17:56.818Z,101239.91
2023-05-07T23:20:37.221Z,101240.59
2023-05-07T23:25:41.950Z,101236.22
2023-05-07T23:28:11.175Z,101245.78
2023-05-07T23:30:42.885Z,101243.03
2023-05-07T23:33:12.248Z,101242.88
2023-05-07T23:35:41.473Z,101238.53
2023-05-07T23:38:11.039Z,101236.72
2023-05-07T23:40:40.383Z,101237.13
2023-05-07T23:43:09.680Z,101234.31
2023-05-07T23:45:38.911Z,101240.25
2023-05-07T23:48:10.658Z,101236.53
2023-05-07T23:50:45.032Z,101252.63
2023-05-07T23:53:14.444Z,101230.09
2023-05-07T23:55:43.876Z,101235.78
2023-05-07T23:58:18.315Z,101242.69
